Time;durP1;ratioP1;P1;durP2;ratioP2;P2;SDS_P1;SDS_P2;PMS_P1;PMS_P2;Temp;Humidity;BMP_temperature;BMP_pressure;BME280_temperature;BME280_humidity;BME280_pressure;Samples;Min_cycle;Max_cycle;Signal;HPM_P1;HPM_P2
2022/11/28 00:00:30;;;;;;;14.20;9.02;;;;;;;2.01;100.00;62206.63;5005077;28;20235;-77
2022/11/28 00:02:57;;;;;;;7.45;6.55;;;;;;;1.95;100.00;62197.97;5005288;28;20561;-78
2022/11/28 00:05:24;;;;;;;13.23;8.48;;;;;;;1.98;100.00;62206.56;5004719;28;20234;-77
2022/11/28 00:07:51;;;;;;;11.38;8.10;;;;;;;2.05;100.00;62208.72;5005472;28;20207;-78
2022/11/28 00:10:18;;;;;;;11.65;8.02;;;;;;;2.03;100.00;62208.69;5006187;28;20223;-77
2022/11/28 00:12:46;;;;;;;9.48;7.57;;;;;;;1.91;100.00;62196.38;5006225;28;20207;-77
2022/11/28 00:15:13;;;;;;;13.00;8.25;;;;;;;2.05;100.00;62210.75;4991729;28;20266;-78
2022/11/28 00:17:40;;;;;;;10.82;8.27;;;;;;;2.02;100.00;62213.19;5006024;28;20206;-77
2022/11/28 00:20:08;;;;;;;13.15;8.77;;;;;;;1.90;100.00;62195.31;5007125;28;20195;-78
2022/11/28 00:22:35;;;;;;;12.35;8.57;;;;;;;1.90;100.00;62195.31;5002764;28;20255;-79
2022/11/28 00:25:01;;;;;;;12.35;8.77;;;;;;;1.96;100.00;62204.00;5006940;28;20203;-78
2022/11/28 00:27:28;;;;;;;11.50;7.88;;;;;;;1.95;100.00;62200.97;5004763;28;20258;-77
2022/11/28 00:29:57;;;;;;;12.60;9.18;;;;;;;1.88;100.00;62191.28;5003209;28;20397;-77
2022/11/28 00:32:24;;;;;;;10.95;8.13;;;;;;;1.92;100.00;62199.88;5008950;28;20210;-78
2022/11/28 00:34:51;;;;;;;11.80;7.70;;;;;;;1.84;100.00;62192.19;5009694;28;20203;-78
2022/11/28 00:37:17;;;;;;;11.43;6.82;;;;;;;1.89;100.00;62194.31;5007021;28;20286;-79
2022/11/28 00:39:44;;;;;;;12.48;7.63;;;;;;;1.91;100.00;62196.88;5008364;28;20424;-78
2022/11/28 00:42:11;;;;;;;11.18;7.53;;;;;;;1.86;100.00;62194.25;5009200;28;20222;-77
2022/11/28 00:44:38;;;;;;;9.23;6.63;;;;;;;1.94;100.00;62201.94;5010247;28;20199;-78
2022/11/28 00:47:06;;;;;;;11.82;7.78;;;;;;;1.73;100.00;62175.88;5005976;28;20223;-78
2022/11/28 00:49:33;;;;;;;9.27;7.10;;;;;;;1.74;100.00;62178.91;5009164;28;20200;-78
2022/11/28 00:52:00;;;;;;;9.52;6.85;;;;;;;1.69;100.00;62173.78;5010329;28;20223;-77
2022/11/28 00:54:27;;;;;;;10.77;7.30;;;;;;;1.64;100.00;62169.16;5009238;28;20214;-78
2022/11/28 00:56:54;;;;;;;8.95;6.25;;;;;;;1.68;100.00;62175.25;5008392;28;20222;-78
2022/11/28 00:59:21;;;;;;;10.95;7.63;;;;;;;1.69;100.00;62173.78;5009748;28;20196;-78
2022/11/28 01:01:49;;;;;;;22.95;12.43;;;;;;;1.71;100.00;62173.81;5006780;28;20483;-80
2022/11/28 01:04:17;;;;;;;23.17;13.88;;;;;;;1.66;100.00;62171.22;5012206;28;20203;-78
2022/11/28 01:06:46;;;;;;;28.23;16.42;;;;;;;1.79;100.00;62187.06;5008959;28;20405;-77
2022/11/28 01:09:15;;;;;;;27.80;16.90;;;;;;;1.70;100.00;62169.78;5008927;28;20246;-78
2022/11/28 01:11:43;;;;;;;26.13;16.73;;;;;;;1.79;100.00;62184.03;5004815;28;20215;-78
2022/11/28 01:14:12;;;;;;;28.50;14.32;;;;;;;1.81;100.00;62186.09;5008773;28;20258;-77
2022/11/28 01:16:39;;;;;;;12.90;9.63;;;;;;;1.93;100.00;62198.41;5007621;28;20218;-77
2022/11/28 01:19:06;;;;;;;9.98;7.60;;;;;;;1.99;100.00;62204.56;5008818;28;20258;-76
2022/11/28 01:21:35;;;;;;;10.93;7.55;;;;;;;1.86;100.00;62191.75;5001018;28;20242;-77
2022/11/28 01:24:02;;;;;;;8.75;7.03;;;;;;;1.93;100.00;62201.44;5007272;28;20254;-78
2022/11/28 01:26:30;;;;;;;8.07;6.35;;;;;;;2.06;100.00;62209.75;5007379;28;20226;-80
2022/11/28 01:28:59;;;;;;;9.02;7.10;;;;;;;2.12;100.00;62213.41;5004917;28;20255;-80
2022/11/28 01:31:28;;;;;;;8.35;6.45;;;;;;;2.18;100.00;62222.09;4999012;28;20279;-81
2022/11/28 01:33:56;;;;;;;8.75;7.25;;;;;;;2.26;100.00;62234.81;5009386;28;20195;-78
2022/11/28 01:36:23;;;;;;;7.70;6.90;;;;;;;2.30;100.00;62239.44;5007635;28;20299;-77
2022/11/28 01:38:52;;;;;;;10.68;7.38;;;;;;;2.27;100.00;62233.31;5005041;28;20206;-78
2022/11/28 01:41:21;;;;;;;9.70;7.35;;;;;;;2.33;100.00;62239.47;5007665;28;20215;-78
2022/11/28 01:44:02;;;;;;;8.90;7.35;;;;;;;2.20;100.00;62226.66;5008308;28;20231;-78
2022/11/28 01:46:30;;;;;;;7.72;6.93;;;;;;;2.19;100.00;62228.13;5007832;28;20219;-78
2022/11/28 01:49:01;;;;;;;8.70;6.68;;;;;;;2.16;100.00;62222.53;4993432;28;20210;-79
2022/11/28 01:51:29;;;;;;;11.60;6.95;;;;;;;2.07;100.00;62212.78;5008096;28;20551;-78
2022/11/28 01:53:59;;;;;;;8.30;6.38;;;;;;;2.20;100.00;62226.13;5008991;28;20245;-79
2022/11/28 01:56:31;;;;;;;6.20;5.40;;;;;;;2.16;100.00;62219.50;5005068;28;20215;-78
2022/11/28 01:59:02;;;;;;;4.63;4.15;;;;;;;1.97;100.00;62202.50;5002597;28;20203;-79
2022/11/28 02:01:30;;;;;;;6.68;4.57;;;;;;;1.80;100.00;62190.59;5008236;28;20234;-81
2022/11/28 02:03:59;;;;;;;5.38;4.65;;;;;;;1.73;100.00;62183.41;5007975;28;20314;-80
2022/11/28 02:06:27;;;;;;;4.55;4.22;;;;;;;1.67;100.00;62172.25;5008072;28;20223;-79
2022/11/28 02:08:55;;;;;;;8.90;5.85;;;;;;;1.71;100.00;62175.84;5010337;28;20199;-79
2022/11/28 02:11:43;;;;;;;13.63;5.13;;;;;;;1.73;100.00;62178.41;5007561;28;20223;-80
2022/11/28 02:14:25;;;;;;;8.25;5.63;;;;;;;1.80;100.00;62185.06;5007996;28;20204;-79
2022/11/28 02:17:04;;;;;;;5.80;5.20;;;;;;;1.89;100.00;62192.31;5008830;28;20227;-79
2022/11/28 02:20:02;;;;;;;4.88;4.05;;;;;;;1.81;100.00;62186.59;5007035;28;20508;-81
2022/11/28 02:22:38;;;;;;;4.22;3.83;;;;;;;1.89;100.00;62194.31;5007646;28;20234;-79
2022/11/28 02:25:25;;;;;;;3.58;3.28;;;;;;;1.90;100.00;62200.88;5009633;28;20383;-79
2022/11/28 02:28:21;;;;;;;3.72;3.33;;;;;;;1.94;100.00;62199.97;5007163;28;20214;-79
2022/11/28 02:30:58;;;;;;;3.17;2.88;;;;;;;2.01;100.00;62206.63;5007758;28;20207;-79
2022/11/28 02:33:31;;;;;;;3.90;2.97;;;;;;;2.14;100.00;62219.97;5007974;28;20211;-81
2022/11/28 02:36:05;;;;;;;3.28;3.08;;;;;;;2.09;100.00;62214.84;5004945;28;20552;-79
2022/11/28 02:38:48;;;;;;;2.97;2.80;;;;;;;2.09;100.00;62215.34;5006783;28;20454;-81
2022/11/28 02:41:23;;;;;;;2.83;2.63;;;;;;;2.06;100.00;62212.28;5009273;28;20216;-81
2022/11/28 02:44:00;;;;;;;2.72;2.53;;;;;;;2.12;100.00;62218.44;5005321;28;20404;-80
2022/11/28 02:46:35;;;;;;;2.60;2.40;;;;;;;2.05;100.00;62213.75;4998125;28;20218;-78
2022/11/28 02:49:05;;;;;;;2.35;2.25;;;;;;;1.97;100.00;62200.00;5007702;28;20209;-80
2022/11/28 02:51:37;;;;;;;2.55;2.45;;;;;;;1.95;100.00;62200.47;5007359;28;20305;-78
2022/11/28 02:54:07;;;;;;;2.97;2.78;;;;;;;2.04;100.00;62207.72;5007578;28;20199;-79
2022/11/28 02:56:34;;;;;;;3.88;3.28;;;;;;;2.01;100.00;62204.13;5005779;28;20226;-80
2022/11/28 02:59:01;;;;;;;3.53;3.22;;;;;;;1.97;100.00;62205.03;5007436;28;20203;-78
2022/11/28 03:01:33;;;;;;;3.97;3.08;;;;;;;1.97;100.00;62203.03;5008228;28;20219;-79
2022/11/28 03:04:17;;;;;;;3.58;3.30;;;;;;;1.85;100.00;62190.72;5006095;28;20219;-78
2022/11/28 03:06:53;;;;;;;2.92;2.80;;;;;;;1.80;100.00;62182.56;4991292;28;20275;-79
2022/11/28 03:09:56;;;;;;;3.10;2.90;;;;;;;1.73;100.00;62175.88;4989259;28;20397;-79
2022/11/28 03:12:31;;;;;;;3.28;3.08;;;;;;;1.79;100.00;62186.56;5002172;28;20434;-78
2022/11/28 03:15:01;;;;;;;3.75;3.45;;;;;;;1.57;100.00;62166.47;5006339;28;20195;-78
2022/11/28 03:17:38;;;;;;;2.65;2.45;;;;;;;1.60;100.00;62162.53;5007000;28;20496;-80
2022/11/28 03:20:17;;;;;;;2.60;2.40;;;;;;;1.57;100.00;62161.47;5005886;28;20230;-78
2022/11/28 03:22:58;;;;;;;3.08;2.88;;;;;;;1.63;100.00;62165.63;5005754;28;20566;-78
2022/11/28 03:25:30;;;;;;;3.15;2.95;;;;;;;1.63;100.00;62168.13;4993791;28;20227;-78
2022/11/28 03:28:07;;;;;;;2.90;2.70;;;;;;;1.67;100.00;62172.25;5004541;28;20203;-79
2022/11/28 03:30:39;;;;;;;2.90;2.70;;;;;;;1.80;100.00;62185.06;5006622;28;20218;-78
2022/11/28 03:33:07;;;;;;;3.30;3.10;;;;;;;1.71;100.00;62178.84;5004401;28;20196;-78
2022/11/28 03:35:41;;;;;;;3.13;2.88;;;;;;;1.75;100.00;62182.44;4993137;28;20219;-78
2022/11/28 03:38:13;;;;;;;2.83;2.63;;;;;;;1.80;100.00;62185.56;5006283;28;20198;-80
2022/11/28 03:40:45;;;;;;;2.33;2.17;;;;;;;1.73;100.00;62180.38;5006587;28;20271;-80
2022/11/28 03:43:18;;;;;;;3.05;2.78;;;;;;;1.82;100.00;62184.59;4998130;28;20278;-79
2022/11/28 03:45:49;;;;;;;3.03;2.80;;;;;;;1.80;100.00;62188.09;5005924;28;20283;-78
2022/11/28 03:48:19;;;;;;;2.58;2.38;;;;;;;1.81;100.00;62186.59;5006017;28;20206;-78
2022/11/28 03:50:52;;;;;;;2.83;2.63;;;;;;;1.85;100.00;62190.19;5006540;28;20528;-77
2022/11/28 03:53:24;;;;;;;3.33;3.13;;;;;;;1.86;100.00;62191.22;5004800;28;20286;-78
2022/11/28 03:55:56;;;;;;;3.33;3.00;;;;;;;1.86;100.00;62189.25;5004896;28;20219;-78
2022/11/28 03:58:30;;;;;;;2.40;2.22;;;;;;;1.92;100.00;62199.88;5006790;28;20200;-79
2022/11/28 04:01:04;;;;;;;2.83;2.63;;;;;;;1.79;100.00;62184.56;5005661;28;20219;-79
2022/11/28 04:03:41;;;;;;;3.33;3.03;;;;;;;1.83;100.00;62185.66;5003618;28;20242;-77
2022/11/28 04:06:17;;;;;;;2.97;2.78;;;;;;;1.78;100.00;62183.00;5005840;28;20453;-78
2022/11/28 04:08:49;;;;;;;3.05;2.85;;;;;;;1.71;100.00;62176.34;5004904;28;20207;-79
2022/11/28 04:11:20;;;;;;;2.58;2.35;;;;;;;1.74;100.00;62174.41;5004281;28;20227;-79
2022/11/28 04:13:54;;;;;;;6.50;4.75;;;;;;;1.76;100.00;62181.47;5000674;28;20214;-79
2022/11/28 04:16:30;;;;;;;4.55;3.75;;;;;;;1.82;100.00;62185.13;5002230;28;20603;-80
2022/11/28 04:19:01;;;;;;;5.85;4.35;;;;;;;1.72;100.00;62179.88;5005608;28;20246;-79
2022/11/28 04:21:34;;;;;;;5.32;4.22;;;;;;;1.63;100.00;62167.63;5002207;28;20229;-79
2022/11/28 04:24:04;;;;;;;3.35;3.13;;;;;;;1.75;100.00;62180.44;5005303;28;20235;-78
2022/11/28 04:26:34;;;;;;;3.97;3.67;;;;;;;1.66;100.00;62173.19;5004569;28;20258;-78
2022/11/28 04:29:05;;;;;;;4.22;3.30;;;;;;;1.70;100.00;62175.31;5006073;28;20203;-79
2022/11/28 04:31:33;;;;;;;3.03;2.83;;;;;;;1.75;100.00;62182.44;4991113;28;20225;-77
2022/11/28 04:34:05;;;;;;;3.03;2.83;;;;;;;1.72;100.00;62179.88;5004540;28;20550;-79
2022/11/28 04:36:39;;;;;;;3.03;2.75;;;;;;;1.71;100.00;62180.84;5005321;28;20219;-78
2022/11/28 04:39:09;;;;;;;3.10;2.90;;;;;;;1.70;100.00;62174.81;5000902;28;20207;-78
2022/11/28 04:41:41;;;;;;;3.50;3.20;;;;;;;1.69;100.00;62168.75;4994897;28;20274;-78
2022/11/28 04:44:13;;;;;;;3.42;3.15;;;;;;;1.68;100.00;62173.25;4985497;28;20262;-77
2022/11/28 04:46:44;;;;;;;3.33;3.08;;;;;;;1.79;100.00;62184.03;5001814;28;20223;-78
2022/11/28 04:49:12;;;;;;;3.08;2.92;;;;;;;1.73;100.00;62177.88;4992781;28;20200;-78
2022/11/28 04:51:46;;;;;;;3.58;3.30;;;;;;;1.73;100.00;62175.38;4992713;28;20237;-77
2022/11/28 04:54:20;;;;;;;4.20;3.28;;;;;;;1.79;100.00;62184.56;4998602;28;20245;-78
2022/11/28 04:56:52;;;;;;;3.53;3.22;;;;;;;1.85;100.00;62193.22;4985453;28;20279;-77
2022/11/28 04:59:22;;;;;;;3.53;3.33;;;;;;;1.82;100.00;62184.59;5003213;28;20204;-77
2022/11/28 05:01:50;;;;;;;3.72;3.42;;;;;;;1.76;100.00;62180.97;5003875;28;20424;-77
2022/11/28 05:04:17;;;;;;;3.20;3.00;;;;;;;1.82;100.00;62184.59;5004632;28;20277;-78
2022/11/28 05:06:45;;;;;;;3.53;3.22;;;;;;;1.73;100.00;62180.38;5003795;28;20245;-78
2022/11/28 05:09:13;;;;;;;3.25;2.95;;;;;;;1.74;100.00;62181.41;5003009;28;20271;-78
2022/11/28 05:11:40;;;;;;;2.97;2.78;;;;;;;1.71;100.00;62178.84;5005265;28;20248;-78
2022/11/28 05:14:07;;;;;;;2.92;2.67;;;;;;;1.86;100.00;62188.72;5004333;28;20207;-78
2022/11/28 05:16:34;;;;;;;3.55;3.20;;;;;;;1.80;100.00;62185.06;5001530;28;20246;-78
2022/11/28 05:19:01;;;;;;;4.47;4.18;;;;;;;1.85;100.00;62188.19;5002042;28;20215;-78
2022/11/28 05:21:28;;;;;;;5.00;4.60;;;;;;;1.85;100.00;62193.22;5002206;28;20231;-77
2022/11/28 05:23:56;;;;;;;7.95;6.63;;;;;;;1.84;100.00;62187.19;5008316;28;20241;-76
2022/11/28 05:26:23;;;;;;;12.93;11.40;;;;;;;1.73;100.00;62175.38;5005011;28;20219;-76
2022/11/28 05:28:51;;;;;;;16.10;12.65;;;;;;;1.74;100.00;62184.44;5007869;28;20200;-78
2022/11/28 05:31:20;;;;;;;16.90;13.48;;;;;;;1.82;100.00;62192.13;5007652;28;20228;-76
2022/11/28 05:33:47;;;;;;;14.82;10.77;;;;;;;1.75;100.00;62180.44;5007283;28;20261;-78
2022/11/28 05:36:15;;;;;;;10.88;8.73;;;;;;;1.87;100.00;62194.75;5004498;28;20223;-79
2022/11/28 05:38:43;;;;;;;15.15;11.25;;;;;;;1.88;100.00;62195.78;5009515;28;20620;-79
2022/11/28 05:41:18;;;;;;;14.00;10.95;;;;;;;1.88;100.00;62196.28;5006775;28;20226;-79
2022/11/28 05:43:45;;;;;;;8.68;7.53;;;;;;;1.79;100.00;62181.53;5005585;28;20231;-76
2022/11/28 05:46:12;;;;;;;7.72;6.72;;;;;;;1.82;100.00;62185.13;4996008;28;20278;-78
2022/11/28 05:48:39;;;;;;;6.38;5.78;;;;;;;1.93;100.00;62198.91;4987688;28;20201;-77
2022/11/28 05:51:08;;;;;;;5.38;4.88;;;;;;;1.94;100.00;62199.97;5002336;28;20456;-79
2022/11/28 05:53:35;;;;;;;5.60;5.15;;;;;;;1.88;100.00;62193.28;5003667;28;20214;-76
2022/11/28 05:56:06;;;;;;;5.57;5.07;;;;;;;1.81;100.00;62188.59;5006901;28;20220;-77
2022/11/28 05:58:35;;;;;;;6.57;5.72;;;;;;;1.82;100.00;62182.09;5006045;28;20211;-74
2022/11/28 06:01:09;;;;;;;16.67;14.48;;;;;;;1.82;100.00;62187.13;5007070;28;20215;-76
2022/11/28 06:03:36;;;;;;;18.65;14.68;;;;;;;1.85;100.00;62193.22;5006347;28;20266;-76
2022/11/28 06:06:04;;;;;;;21.42;17.55;;;;;;;1.94;100.00;62201.94;5009097;28;20589;-78
2022/11/28 06:08:31;;;;;;;22.15;18.40;;;;;;;1.88;100.00;62196.28;5015350;28;20279;-79
2022/11/28 06:10:58;;;;;;;12.93;11.10;;;;;;;1.84;100.00;62189.16;5001136;28;20279;-77
2022/11/28 06:13:26;;;;;;;8.80;7.90;;;;;;;1.80;100.00;62188.09;4987319;28;20255;-76
2022/11/28 06:15:55;;;;;;;7.10;6.47;;;;;;;1.91;100.00;62196.38;5002082;28;20219;-76
2022/11/28 06:18:22;;;;;;;6.07;5.57;;;;;;;1.94;100.00;62199.44;5006727;28;20199;-78
2022/11/28 06:20:48;;;;;;;6.78;6.13;;;;;;;2.02;100.00;62208.16;4991400;28;20223;-75
2022/11/28 06:23:15;;;;;;;6.05;5.45;;;;;;;1.95;100.00;62202.97;4989178;28;20196;-76
2022/11/28 06:25:42;;;;;;;10.60;8.05;;;;;;;2.09;100.00;62210.31;4987438;28;20435;-76
2022/11/28 06:28:09;;;;;;;10.60;7.40;;;;;;;2.15;100.00;62224.03;4987686;28;20271;-77
2022/11/28 06:30:36;;;;;;;10.20;7.25;;;;;;;2.16;100.00;62219.50;5006463;28;20310;-77
2022/11/28 06:33:04;;;;;;;11.40;7.75;;;;;;;2.12;100.00;62218.44;5007022;28;20223;-77
2022/11/28 06:35:32;;;;;;;10.02;7.65;;;;;;;2.18;100.00;62224.59;5006899;28;20227;-79
2022/11/28 06:37:59;;;;;;;9.82;7.15;;;;;;;2.34;100.00;62240.53;4997765;28;20198;-77
2022/11/28 06:40:26;;;;;;;10.65;7.80;;;;;;;2.44;100.00;62248.28;4988088;28;20239;-78
2022/11/28 06:42:53;;;;;;;10.50;8.77;;;;;;;2.48;100.00;62254.38;4987106;28;20341;-76
2022/11/28 06:45:20;;;;;;;15.02;10.27;;;;;;;2.56;100.00;62267.63;4987007;28;20478;-76
2022/11/28 06:47:46;;;;;;;15.48;11.15;;;;;;;2.61;100.00;62265.72;4988432;28;20203;-77
2022/11/28 06:50:15;;;;;;;13.57;9.57;;;;;;;2.63;100.00;62269.78;4986428;28;20226;-77
2022/11/28 06:52:42;;;;;;;9.88;7.57;;;;;;;2.66;100.00;62275.91;4986671;28;20200;-78
2022/11/28 06:55:09;;;;;;;10.30;7.15;;;;;;;2.74;100.00;62281.63;4988960;28;20210;-79
2022/11/28 06:57:36;;;;;;;9.77;7.07;;;;;;;2.76;100.00;62285.66;4990046;28;20199;-77
2022/11/28 07:00:05;;;;;;;11.70;9.13;;;;;;;2.75;100.00;62282.63;5007481;28;20238;-77
2022/11/28 07:02:32;;;;;;;13.10;9.98;;;;;;;2.73;100.00;62277.53;5007319;28;20233;-77
2022/11/28 07:04:59;;;;;;;16.73;11.20;;;;;;;2.82;100.00;62289.31;4991753;28;20244;-77
2022/11/28 07:07:27;;;;;;;14.10;10.40;;;;;;;2.94;100.00;62302.16;4987858;28;20220;-77
2022/11/28 07:09:56;;;;;;;11.50;6.95;;;;;;;2.80;100.00;62292.78;5003066;28;20207;-77
2022/11/28 07:12:22;;;;;;;8.30;6.72;;;;;;;2.71;100.00;62286.06;5005604;28;20275;-77
2022/11/28 07:14:49;;;;;;;11.27;8.55;;;;;;;2.69;100.00;62273.97;5003820;28;20203;-77
2022/11/28 07:17:16;;;;;;;13.55;9.23;;;;;;;2.81;100.00;62290.81;5006539;28;20510;-77
2022/11/28 07:19:44;;;;;;;14.75;11.30;;;;;;;2.72;100.00;62279.56;4998280;28;20406;-77
2022/11/28 07:22:11;;;;;;;16.08;10.45;;;;;;;2.75;100.00;62282.63;4998366;28;20224;-77
2022/11/28 07:24:39;;;;;;;14.43;11.27;;;;;;;2.81;100.00;62288.28;4986593;28;20235;-77
2022/11/28 07:27:06;;;;;;;13.63;10.32;;;;;;;2.87;100.00;62294.44;4986003;28;20262;-76
2022/11/28 07:29:35;;;;;;;14.73;11.13;;;;;;;2.77;100.00;62289.19;4985179;28;20204;-77
2022/11/28 07:32:02;;;;;;;18.63;10.70;;;;;;;2.92;100.00;62302.09;4987172;28;20224;-77
2022/11/28 07:34:29;;;;;;;20.73;10.50;;;;;;;2.88;100.00;62298.00;4986188;28;20200;-77
2022/11/28 07:36:56;;;;;;;16.80;11.52;;;;;;;2.96;100.00;62301.19;4986621;28;20224;-77
2022/11/28 07:39:23;;;;;;;12.68;10.13;;;;;;;3.11;100.00;62317.13;4986902;28;20216;-77
2022/11/28 07:41:51;;;;;;;15.05;11.23;;;;;;;3.29;100.00;62335.09;4985480;28;20224;-77
2022/11/28 07:44:18;;;;;;;15.23;9.90;;;;;;;3.28;100.00;62336.59;4989073;28;20271;-76
2022/11/28 07:46:46;;;;;;;15.15;10.10;;;;;;;3.25;100.00;62333.50;4985798;28;20219;-76
2022/11/28 07:49:14;;;;;;;12.00;9.93;;;;;;;3.00;100.00;62307.81;4998589;28;20207;-78
2022/11/28 07:51:41;;;;;;;11.00;9.60;;;;;;;2.88;100.00;62301.00;5007418;28;20230;-77
2022/11/28 07:54:09;;;;;;;15.80;10.15;;;;;;;3.10;100.00;62318.09;5004344;28;20305;-77
2022/11/28 07:56:38;;;;;;;11.50;9.57;;;;;;;3.18;100.00;62329.34;5005642;28;20219;-77
2022/11/28 07:59:06;;;;;;;14.57;9.75;;;;;;;3.07;100.00;62320.03;4985899;28;20208;-77
2022/11/28 08:01:35;;;;;;;12.13;8.90;;;;;;;3.14;100.00;62324.72;4986060;28;20661;-77
2022/11/28 08:04:03;;;;;;;8.23;7.43;;;;;;;3.38;100.00;62349.41;4987744;28;20236;-78
2022/11/28 08:06:31;;;;;;;10.13;6.90;;;;;;;3.41;100.00;62345.44;4989584;28;20529;-78
2022/11/28 08:09:00;;;;;;;8.05;7.05;;;;;;;3.12;100.00;62317.63;5006209;28;20195;-76
2022/11/28 08:11:31;;;;;;;9.88;7.25;;;;;;;3.24;100.00;62332.47;5005056;28;20218;-76
2022/11/28 08:13:58;;;;;;;7.53;6.20;;;;;;;3.16;100.00;62322.25;5006938;28;20246;-78
2022/11/28 08:16:29;;;;;;;7.32;6.43;;;;;;;3.08;100.00;62316.56;4993944;28;20226;-81
2022/11/28 08:18:56;;;;;;;6.90;6.20;;;;;;;3.01;100.00;62309.34;4987864;28;20203;-77
2022/11/28 08:21:25;;;;;;;13.38;9.38;;;;;;;3.16;100.00;62324.75;4985833;28;20270;-78
2022/11/28 08:23:53;;;;;;;8.50;7.03;;;;;;;3.17;100.00;62327.81;4992557;28;20242;-76
2022/11/28 08:26:23;;;;;;;12.65;7.72;;;;;;;3.21;100.00;62329.91;5005428;28;20238;-79
2022/11/28 08:28:52;;;;;;;7.38;6.47;;;;;;;3.16;100.00;62324.75;5004818;28;20479;-76
2022/11/28 08:31:23;;;;;;;21.83;11.30;;;;;;;3.24;100.00;62335.00;4999003;28;20223;-77
2022/11/28 08:33:54;;;;;;;23.35;13.63;;;;;;;3.21;100.00;62327.38;5000753;28;20274;-76
2022/11/28 08:36:23;;;;;;;15.88;10.15;;;;;;;3.33;100.00;62341.75;5000643;28;20224;-78
2022/11/28 08:38:50;;;;;;;15.32;10.18;;;;;;;3.57;100.00;62366.41;4988496;28;20232;-76
2022/11/28 08:41:21;;;;;;;15.80;9.05;;;;;;;3.76;100.00;62385.44;5001171;28;20219;-77
2022/11/28 08:43:49;;;;;;;15.93;8.13;;;;;;;3.89;100.00;62398.81;5004400;28;20203;-77
2022/11/28 08:46:17;;;;;;;14.68;8.10;;;;;;;3.95;100.00;62404.97;5005875;28;20216;-77
2022/11/28 08:48:44;;;;;;;8.93;6.70;;;;;;;4.05;100.00;62415.78;4993084;28;20210;-77
2022/11/28 08:51:15;;;;;;;9.52;7.45;;;;;;;4.06;100.00;62419.31;4985408;28;20418;-77
2022/11/28 08:53:42;;;;;;;11.45;8.43;;;;;;;3.91;100.00;62403.91;4986142;28;20204;-76
2022/11/28 08:56:10;;;;;;;13.35;8.70;;;;;;;3.92;100.00;62399.88;4989813;28;20223;-77
2022/11/28 08:58:37;;;;;;;8.85;5.88;;;;;;;3.69;100.00;62381.28;4991512;28;20200;-78
2022/11/28 09:01:05;;;;;;;8.40;6.05;;;;;;;3.85;100.00;62400.25;4988922;28;20267;-78
2022/11/28 09:03:32;;;;;;;12.65;8.65;;;;;;;3.71;100.00;62385.34;4988938;28;20497;-77
2022/11/28 09:06:02;;;;;;;9.85;7.50;;;;;;;3.83;100.00;62390.13;4989393;28;20247;-78
2022/11/28 09:08:32;;;;;;;7.20;6.50;;;;;;;4.11;100.00;62421.44;4989879;28;20211;-77
2022/11/28 09:10:59;;;;;;;5.00;4.60;;;;;;;4.32;100.00;62446.09;4987926;28;20231;-77
2022/11/28 09:13:26;;;;;;;8.73;6.00;;;;;;;4.46;100.00;62463.00;4991408;28;20208;-77
2022/11/28 09:15:54;;;;;;;4.20;3.90;;;;;;;4.40;100.00;62451.28;5005488;28;20227;-78
2022/11/28 09:18:20;;;;;;;4.63;4.25;;;;;;;4.59;100.00;62473.38;5007811;28;20199;-78
2022/11/28 09:20:47;;;;;;;5.80;3.90;;;;;;;4.17;100.00;62427.63;5007337;28;20219;-78
2022/11/28 09:23:14;;;;;;;4.03;3.67;;;;;;;4.10;100.00;62422.94;5010066;28;20426;-78
2022/11/28 09:25:42;;;;;;;5.38;4.88;;;;;;;4.09;100.00;62419.88;5009422;28;20415;-78
2022/11/28 09:28:15;;;;;;;7.68;4.78;;;;;;;4.01;100.00;62408.63;4992899;28;20204;-78
2022/11/28 09:30:42;;;;;;;4.28;3.88;;;;;;;3.85;100.00;62395.19;4992391;28;20220;-77
2022/11/28 09:33:09;;;;;;;6.35;3.90;;;;;;;3.97;100.00;62407.53;4989080;28;20204;-78
2022/11/28 09:35:38;;;;;;;5.85;4.75;;;;;;;3.97;100.00;62409.56;5004507;28;20242;-78
2022/11/28 09:38:05;;;;;;;6.25;4.72;;;;;;;4.12;100.00;62425.00;5005812;28;20200;-78
2022/11/28 09:40:37;;;;;;;7.68;4.43;;;;;;;4.14;100.00;62425.03;4994738;28;20247;-78
2022/11/28 09:43:15;;;;;;;4.05;3.75;;;;;;;4.17;100.00;62427.63;5008653;28;20318;-78
2022/11/28 09:45:43;;;;;;;4.38;3.97;;;;;;;3.85;100.00;62397.72;5002380;28;20238;-77
2022/11/28 09:48:24;;;;;;;5.13;4.68;;;;;;;3.74;100.00;62383.91;4998421;28;20232;-77
2022/11/28 09:50:54;;;;;;;3.83;3.58;;;;;;;3.94;100.00;62409.50;5007579;28;20215;-79
2022/11/28 09:53:26;;;;;;;4.45;4.05;;;;;;;3.68;100.00;62377.72;5005901;28;20238;-78
2022/11/28 09:55:59;;;;;;;6.22;5.22;;;;;;;3.60;100.00;62369.50;4995527;28;20220;-77
2022/11/28 09:58:36;;;;;;;9.15;7.68;;;;;;;3.56;100.00;62365.38;4994770;28;20203;-77
2022/11/28 10:01:11;;;;;;;7.72;5.10;;;;;;;3.69;100.00;62380.75;4988564;28;20224;-77
2022/11/28 10:03:48;;;;;;;22.45;5.22;;;;;;;3.97;100.00;62402.50;4988705;28;20207;-78
2022/11/28 10:06:20;;;;;;;4.03;3.72;;;;;;;3.83;100.00;62390.63;4999398;28;20484;-77
2022/11/28 10:09:16;;;;;;;4.55;4.18;;;;;;;4.15;100.00;62425.56;5003281;28;20211;-76
2022/11/28 10:11:53;;;;;;;3.65;3.42;;;;;;;4.51;100.00;62460.06;4999687;28;20246;-78
2022/11/28 10:14:50;;;;;;;4.32;3.92;;;;;;;4.52;100.00;62466.66;4998153;28;20204;-78
2022/11/28 10:17:28;;;;;;;4.22;3.83;;;;;;;4.27;100.00;62438.41;4988217;28;20220;-79
2022/11/28 10:20:01;;;;;;;4.30;3.88;;;;;;;3.82;100.00;62394.63;5001497;28;20525;-78
2022/11/28 10:22:37;;;;;;;4.22;3.83;;;;;;;3.82;100.00;62391.59;5000246;28;20219;-78
2022/11/28 10:25:12;;;;;;;6.25;5.35;;;;;;;3.82;100.00;62389.09;5002783;28;20216;-79
2022/11/28 10:27:41;;;;;;;6.65;5.22;;;;;;;3.60;100.00;62368.97;4987980;28;20243;-77
2022/11/28 10:30:18;;;;;;;4.45;4.07;;;;;;;3.65;100.00;62377.16;4989519;28;20200;-78
2022/11/28 10:32:54;;;;;;;4.30;4.00;;;;;;;3.36;100.00;62349.84;4987194;28;20200;-78
2022/11/28 10:35:30;;;;;;;3.53;3.22;;;;;;;3.40;100.00;62356.47;4988605;28;20223;-77
2022/11/28 10:37:59;;;;;;;3.38;3.08;;;;;;;3.65;100.00;62372.13;4986846;28;20720;-78
2022/11/28 10:40:35;;;;;;;4.60;4.20;;;;;;;3.75;100.00;62384.41;4988781;28;20599;-80
2022/11/28 10:43:09;;;;;;;3.30;3.00;;;;;;;3.63;100.00;62372.56;4989269;28;20207;-79
2022/11/28 10:45:51;;;;;;;3.20;3.00;;;;;;;3.89;100.00;62403.84;4989961;28;20246;-79
2022/11/28 10:48:31;;;;;;;2.95;2.75;;;;;;;3.78;100.00;62390.00;4987944;28;20204;-79
2022/11/28 10:51:08;;;;;;;2.80;2.60;;;;;;;3.93;100.00;62408.47;4997078;28;20284;-82
2022/11/28 10:53:47;;;;;;;2.53;2.42;;;;;;;3.91;100.00;62403.91;4999804;28;20199;-78
2022/11/28 10:56:27;;;;;;;2.95;2.75;;;;;;;4.19;100.00;62432.72;5002968;28;20222;-77
2022/11/28 10:59:02;;;;;;;4.15;2.70;;;;;;;4.00;100.00;62410.66;5006916;28;20503;-79
2022/11/28 11:01:36;;;;;;;3.05;2.75;;;;;;;4.39;100.00;62452.75;5006341;28;20221;-78
2022/11/28 11:04:03;;;;;;;3.20;3.00;;;;;;;4.54;100.00;62468.19;5007689;28;20199;-77
2022/11/28 11:06:30;;;;;;;3.47;3.25;;;;;;;4.59;100.00;62473.38;4999026;28;20454;-77
2022/11/28 11:08:57;;;;;;;3.90;3.63;;;;;;;4.47;100.00;62456.47;5004444;28;20215;-77
2022/11/28 11:11:29;;;;;;;3.28;3.08;;;;;;;4.31;100.00;62445.06;5006959;28;20230;-78
2022/11/28 11:13:58;;;;;;;5.40;3.40;;;;;;;4.36;100.00;62449.69;5001502;28;20203;-77
2022/11/28 11:16:28;;;;;;;7.13;4.05;;;;;;;4.66;100.00;62478.56;4998022;28;20227;-76
2022/11/28 11:18:56;;;;;;;10.25;4.20;;;;;;;5.02;100.00;62517.13;4996373;28;20192;-77
2022/11/28 11:21:25;;;;;;;5.10;4.60;;;;;;;4.94;100.00;62509.38;4991695;28;20227;-76
2022/11/28 11:24:14;;;;;;;5.97;5.40;;;;;;;4.57;100.00;62469.28;4991540;28;20594;-75
2022/11/28 11:26:44;;;;;;;4.65;4.20;;;;;;;4.62;100.00;62471.41;5002631;28;20231;-74
2022/11/28 11:29:21;;;;;;;6.25;4.70;;;;;;;4.66;100.00;62483.59;4985446;28;20199;-77
2022/11/28 11:31:52;;;;;;;9.50;4.97;;;;;;;4.83;100.00;62500.59;4991249;28;20532;-77
2022/11/28 11:34:22;;;;;;;5.93;4.72;;;;;;;4.98;100.00;62507.94;4993192;28;20204;-78
2022/11/28 11:36:50;;;;;;;5.78;5.13;;;;;;;4.70;100.00;62485.19;4998063;28;20227;-75
2022/11/28 11:39:24;;;;;;;8.05;6.88;;;;;;;4.73;100.00;62487.75;5005114;28;20502;-76
2022/11/28 11:42:09;;;;;;;5.63;5.13;;;;;;;4.71;100.00;62480.66;5005463;28;20219;-76
2022/11/28 11:44:36;;;;;;;7.07;5.47;;;;;;;4.46;100.00;62460.50;4985439;28;20283;-77